sensor_id;sensor_type;location;lat;lon;timestamp;pressure;altitude;pressure_sealevel;temperature;humidity
39891;BME280;25564;53.312;9.790;2023-04-16T00:02:13;101151.41;;;8.41;96.39
39891;BME280;25564;53.312;9.790;2023-04-16T00:04:45;101137.31;;;8.38;96.53
39891;BME280;25564;53.312;9.790;2023-04-16T00:07:16;101161.97;;;8.52;96.20
39891;BME280;25564;53.312;9.790;2023-04-16T00:09:47;101153.13;;;8.58;95.80
39891;BME280;25564;53.312;9.790;2023-04-16T00:12:19;101159.31;;;8.61;96.00
39891;BME280;25564;53.312;9.790;2023-04-16T00:14:50;101145.22;;;8.55;96.37
39891;BME280;25564;53.312;9.790;2023-04-16T00:17:21;101162.81;;;8.68;96.35
39891;BME280;25564;53.312;9.790;2023-04-16T00:19:53;101157.53;;;8.68;96.17
39891;BME280;25564;53.312;9.790;2023-04-16T00:22:24;101157.53;;;8.68;96.11
39891;BME280;25564;53.312;9.790;2023-04-16T00:24:55;101152.22;;;8.66;95.74
39891;BME280;25564;53.312;9.790;2023-04-16T00:27:27;101155.75;;;8.65;95.84
39891;BME280;25564;53.312;9.790;2023-04-16T00:29:58;101154.88;;;8.65;96.28
39891;BME280;25564;53.312;9.790;2023-04-16T00:32:29;101152.22;;;8.65;96.66
39891;BME280;25564;53.312;9.790;2023-04-16T00:35:01;101157.53;;;8.63;96.20
39891;BME280;25564;53.312;9.790;2023-04-16T00:37:32;101152.22;;;8.65;96.41
39891;BME280;25564;53.312;9.790;2023-04-16T00:40:04;101163.69;;;8.67;96.00
39891;BME280;25564;53.312;9.790;2023-04-16T00:42:35;101160.16;;;8.68;96.18
39891;BME280;25564;53.312;9.790;2023-04-16T00:45:08;101159.28;;;8.66;95.70
39891;BME280;25564;53.312;9.790;2023-04-16T00:47:40;101155.78;;;8.61;96.46
39891;BME280;25564;53.312;9.790;2023-04-16T00:50:11;101163.69;;;8.64;96.23
39891;BME280;25564;53.312;9.790;2023-04-16T00:52:46;101158.41;;;8.64;95.81
39891;BME280;25564;53.312;9.790;2023-04-16T00:55:18;101146.97;;;8.56;95.86
39891;BME280;25564;53.312;9.790;2023-04-16T00:57:50;101166.34;;;8.62;96.17
39891;BME280;25564;53.312;9.790;2023-04-16T01:00:21;101163.72;;;8.59;96.38
39891;BME280;25564;53.312;9.790;2023-04-16T01:02:53;101169.00;;;8.59;96.23
39891;BME280;25564;53.312;9.790;2023-04-16T01:05:25;101170.75;;;8.60;95.90
39891;BME280;25564;53.312;9.790;2023-04-16T01:07:59;101171.66;;;8.62;95.84
39891;BME280;25564;53.312;9.790;2023-04-16T01:10:31;101175.16;;;8.63;96.21
39891;BME280;25564;53.312;9.790;2023-04-16T01:13:02;101159.31;;;8.50;96.21
39891;BME280;25564;53.312;9.790;2023-04-16T01:15:33;101180.47;;;8.61;95.94
39891;BME280;25564;53.312;9.790;2023-04-16T01:18:15;101169.00;;;8.58;96.04
39891;BME280;25564;53.312;9.790;2023-04-16T01:20:47;101189.28;;;8.62;95.79
39891;BME280;25564;53.312;9.790;2023-04-16T01:23:19;101191.94;;;8.62;96.35
39891;BME280;25564;53.312;9.790;2023-04-16T01:25:50;101195.47;;;8.58;96.07
39891;BME280;25564;53.312;9.790;2023-04-16T01:28:22;101196.34;;;8.53;95.97
39891;BME280;25564;53.312;9.790;2023-04-16T01:30:53;101204.28;;;8.47;95.93
39891;BME280;25564;53.312;9.790;2023-04-16T01:33:24;101181.38;;;8.34;96.39
39891;BME280;25564;53.312;9.790;2023-04-16T01:35:56;101199.00;;;8.37;95.97
39891;BME280;25564;53.312;9.790;2023-04-16T01:38:27;101200.78;;;8.30;95.76
39891;BME280;25564;53.312;9.790;2023-04-16T01:40:58;101199.91;;;8.22;96.22
39891;BME280;25564;53.312;9.790;2023-04-16T01:43:30;101204.31;;;8.15;96.31
39891;BME280;25564;53.312;9.790;2023-04-16T01:46:20;101203.41;;;8.09;95.97
39891;BME280;25564;53.312;9.790;2023-04-16T01:48:54;101207.81;;;8.01;96.29
39891;BME280;25564;53.312;9.790;2023-04-16T01:51:25;101212.22;;;7.93;96.20
39891;BME280;25564;53.312;9.790;2023-04-16T01:53:57;101199.88;;;7.84;96.59
39891;BME280;25564;53.312;9.790;2023-04-16T01:56:29;101213.97;;;7.83;96.14
39891;BME280;25564;53.312;9.790;2023-04-16T01:59:00;101206.91;;;7.79;96.61
39891;BME280;25564;53.312;9.790;2023-04-16T02:01:31;101178.69;;;7.60;96.27
39891;BME280;25564;53.312;9.790;2023-04-16T02:04:03;101210.41;;;7.72;96.45
39891;BME280;25564;53.312;9.790;2023-04-16T02:06:35;101191.00;;;7.58;96.87
39891;BME280;25564;53.312;9.790;2023-04-16T02:09:06;101213.94;;;7.68;96.44
39891;BME280;25564;53.312;9.790;2023-04-16T02:11:38;101206.88;;;7.67;96.67
39891;BME280;25564;53.312;9.790;2023-04-16T02:14:09;101203.34;;;7.55;96.62
39891;BME280;25564;53.312;9.790;2023-04-16T02:16:41;101214.78;;;7.62;97.00
39891;BME280;25564;53.312;9.790;2023-04-16T02:19:12;101213.03;;;7.61;96.66
39891;BME280;25564;53.312;9.790;2023-04-16T02:21:43;101197.16;;;7.52;96.62
39891;BME280;25564;53.312;9.790;2023-04-16T02:24:15;101217.44;;;7.61;96.94
39891;BME280;25564;53.312;9.790;2023-04-16T02:26:46;101209.50;;;7.53;97.12
39891;BME280;25564;53.312;9.790;2023-04-16T02:29:18;101204.22;;;7.51;96.72
39891;BME280;25564;53.312;9.790;2023-04-16T02:31:49;101220.97;;;7.63;96.21
39891;BME280;25564;53.312;9.790;2023-04-16T02:34:21;101217.44;;;7.64;96.56
39891;BME280;25564;53.312;9.790;2023-04-16T02:36:52;101215.69;;;7.63;96.75
39891;BME280;25564;53.312;9.790;2023-04-16T02:39:25;101218.31;;;7.64;96.94
39891;BME280;25564;53.312;9.790;2023-04-16T02:41:56;101221.84;;;7.65;96.47
39891;BME280;25564;53.312;9.790;2023-04-16T02:44:28;101196.28;;;7.53;96.80
39891;BME280;25564;53.312;9.790;2023-04-16T02:46:59;101216.56;;;7.66;96.67
39891;BME280;25564;53.312;9.790;2023-04-16T02:49:30;101220.09;;;7.68;96.54
39891;BME280;25564;53.312;9.790;2023-04-16T02:52:02;101217.47;;;7.70;96.59
39891;BME280;25564;53.312;9.790;2023-04-16T02:54:33;101209.50;;;7.62;96.80
39891;BME280;25564;53.312;9.790;2023-04-16T02:57:04;101223.63;;;7.75;96.79
39891;BME280;25564;53.312;9.790;2023-04-16T02:59:36;101197.19;;;7.58;96.68
39891;BME280;25564;53.312;9.790;2023-04-16T03:02:07;101225.41;;;7.77;96.53
39891;BME280;25564;53.312;9.790;2023-04-16T03:04:38;101236.84;;;7.79;96.48
39891;BME280;25564;53.312;9.790;2023-04-16T03:07:10;101220.09;;;7.71;96.84
39891;BME280;25564;53.312;9.790;2023-04-16T03:09:43;101223.63;;;7.79;96.75
39891;BME280;25564;53.312;9.790;2023-04-16T03:12:14;101230.69;;;7.85;96.86
39891;BME280;25564;53.312;9.790;2023-04-16T03:14:45;101241.28;;;7.86;96.56
39891;BME280;25564;53.312;9.790;2023-04-16T03:17:17;101231.59;;;7.88;96.31
39891;BME280;25564;53.312;9.790;2023-04-16T03:19:48;101232.47;;;7.91;96.46
39891;BME280;25564;53.312;9.790;2023-04-16T03:22:21;101230.72;;;7.91;96.14
39891;BME280;25564;53.312;9.790;2023-04-16T03:24:52;101218.38;;;7.82;96.38
39891;BME280;25564;53.312;9.790;2023-04-16T03:27:23;101245.69;;;7.97;96.48
39891;BME280;25564;53.312;9.790;2023-04-16T03:29:55;101225.44;;;7.96;95.82
39891;BME280;25564;53.312;9.790;2023-04-16T03:32:26;101196.34;;;7.76;95.99
39891;BME280;25564;53.312;9.790;2023-04-16T03:34:58;101247.47;;;7.99;96.43
39891;BME280;25564;53.312;9.790;2023-04-16T03:37:29;101242.16;;;7.98;96.46
39891;BME280;25564;53.312;9.790;2023-04-16T03:40:00;101243.94;;;7.99;96.41
39891;BME280;25564;53.312;9.790;2023-04-16T03:42:32;101243.06;;;7.98;96.34
39891;BME280;25564;53.312;9.790;2023-04-16T03:45:04;101241.28;;;7.99;96.47
39891;BME280;25564;53.312;9.790;2023-04-16T03:47:35;101243.94;;;8.00;95.79
39891;BME280;25564;53.312;9.790;2023-04-16T03:50:07;101242.19;;;8.01;96.18
39891;BME280;25564;53.312;9.790;2023-04-16T03:52:38;101239.53;;;7.99;95.89
39891;BME280;25564;53.312;9.790;2023-04-16T03:55:09;101237.78;;;8.00;96.19
39891;BME280;25564;53.312;9.790;2023-04-16T03:57:40;101239.53;;;7.96;96.14
39891;BME280;25564;53.312;9.790;2023-04-16T04:00:12;101238.66;;;7.94;96.13
39891;BME280;25564;53.312;9.790;2023-04-16T04:02:46;101242.16;;;7.92;96.42
39891;BME280;25564;53.312;9.790;2023-04-16T04:05:18;101243.91;;;7.90;96.30
39891;BME280;25564;53.312;9.790;2023-04-16T04:07:49;101227.16;;;7.80;96.07
39891;BME280;25564;53.312;9.790;2023-04-16T04:10:20;101242.16;;;7.87;95.94
39891;BME280;25564;53.312;9.790;2023-04-16T04:12:51;101249.19;;;7.86;96.50
39891;BME280;25564;53.312;9.790;2023-04-16T04:15:23;101248.31;;;7.87;96.20
39891;BME280;25564;53.312;9.790;2023-04-16T04:17:54;101257.13;;;7.90;96.08
39891;BME280;25564;53.312;9.790;2023-04-16T04:20:26;101247.44;;;7.84;96.01
39891;BME280;25564;53.312;9.790;2023-04-16T04:22:57;101258.03;;;7.96;95.95
39891;BME280;25564;53.312;9.790;2023-04-16T04:25:29;101258.03;;;7.99;95.85
39891;BME280;25564;53.312;9.790;2023-04-16T04:28:00;101271.25;;;8.07;96.38
39891;BME280;25564;53.312;9.790;2023-04-16T04:30:32;101275.66;;;8.09;96.21
39891;BME280;25564;53.312;9.790;2023-04-16T04:33:03;101272.16;;;8.12;96.24
39891;BME280;25564;53.312;9.790;2023-04-16T04:35:34;101276.56;;;8.14;95.89
39891;BME280;25564;53.312;9.790;2023-04-16T04:38:06;101268.63;;;8.16;95.91
39891;BME280;25564;53.312;9.790;2023-04-16T04:40:37;101269.50;;;8.18;95.78
39891;BME280;25564;53.312;9.790;2023-04-16T04:43:09;101273.03;;;8.20;96.43
39891;BME280;25564;53.312;9.790;2023-04-16T04:45:40;101257.16;;;8.14;96.21
39891;BME280;25564;53.312;9.790;2023-04-16T04:48:12;101273.94;;;8.25;96.23
39891;BME280;25564;53.312;9.790;2023-04-16T04:50:44;101277.47;;;8.29;95.97
39891;BME280;25564;53.312;9.790;2023-04-16T04:53:15;101283.59;;;8.32;96.57
39891;BME280;25564;53.312;9.790;2023-04-16T04:55:46;101283.63;;;8.35;96.18
39891;BME280;25564;53.312;9.790;2023-04-16T04:58:24;101285.41;;;8.38;96.14
39891;BME280;25564;53.312;9.790;2023-04-16T05:00:55;101288.94;;;8.41;96.42
39891;BME280;25564;53.312;9.790;2023-04-16T05:03:26;101293.34;;;8.45;96.38
39891;BME280;25564;53.312;9.790;2023-04-16T05:05:58;101302.16;;;8.49;96.13
39891;BME280;25564;53.312;9.790;2023-04-16T05:08:29;101287.16;;;8.43;96.03
39891;BME280;25564;53.312;9.790;2023-04-16T05:11:00;101288.94;;;8.50;96.13
39891;BME280;25564;53.312;9.790;2023-04-16T05:13:32;101290.69;;;8.58;96.24
39891;BME280;25564;53.312;9.790;2023-04-16T05:16:03;101299.50;;;8.60;95.75
39891;BME280;25564;53.312;9.790;2023-04-16T05:18:35;101299.50;;;8.63;96.02
39891;BME280;25564;53.312;9.790;2023-04-16T05:21:06;101291.56;;;8.58;96.09
39891;BME280;25564;53.312;9.790;2023-04-16T05:23:38;101305.69;;;8.68;96.06
39891;BME280;25564;53.312;9.790;2023-04-16T05:26:09;101303.03;;;8.71;96.10
39891;BME280;25564;53.312;9.790;2023-04-16T05:28:40;101306.56;;;8.76;96.00
39891;BME280;25564;53.312;9.790;2023-04-16T05:31:11;101307.44;;;8.75;96.14
39891;BME280;25564;53.312;9.790;2023-04-16T05:33:43;101309.19;;;8.80;95.49
39891;BME280;25564;53.312;9.790;2023-04-16T05:36:14;101318.03;;;8.82;95.75
39891;BME280;25564;53.312;9.790;2023-04-16T05:38:46;101322.44;;;8.85;96.10
39891;BME280;25564;53.312;9.790;2023-04-16T05:41:17;101308.31;;;8.78;95.99
39891;BME280;25564;53.312;9.790;2023-04-16T05:43:48;101313.63;;;8.83;95.33
39891;BME280;25564;53.312;9.790;2023-04-16T05:46:20;101317.13;;;8.85;95.83
39891;BME280;25564;53.312;9.790;2023-04-16T05:48:51;101331.25;;;8.87;95.51
39891;BME280;25564;53.312;9.790;2023-04-16T05:51:22;101336.56;;;8.85;95.79
39891;BME280;25564;53.312;9.790;2023-04-16T05:53:56;101337.44;;;8.88;95.89
39891;BME280;25564;53.312;9.790;2023-04-16T05:56:27;101335.66;;;8.85;95.45
39891;BME280;25564;53.312;9.790;2023-04-16T05:58:58;101325.97;;;8.78;95.17
39891;BME280;25564;53.312;9.790;2023-04-16T06:01:31;101335.66;;;8.85;95.19
39891;BME280;25564;53.312;9.790;2023-04-16T06:04:04;101325.09;;;8.77;95.38
39891;BME280;25564;53.312;9.790;2023-04-16T06:06:36;101318.03;;;8.75;95.91
39891;BME280;25564;53.312;9.790;2023-04-16T06:09:07;101338.31;;;8.93;95.29
39891;BME280;25564;53.312;9.790;2023-04-16T06:11:39;101346.25;;;8.94;95.19
39891;BME280;25564;53.312;9.790;2023-04-16T06:14:10;101345.38;;;8.98;95.17
39891;BME280;25564;53.312;9.790;2023-04-16T06:16:42;101340.94;;;8.97;95.29
39891;BME280;25564;53.312;9.790;2023-04-16T06:19:13;101345.34;;;9.03;95.37
39891;BME280;25564;53.312;9.790;2023-04-16T06:21:44;101352.41;;;9.08;95.53
39891;BME280;25564;53.312;9.790;2023-04-16T06:24:16;101355.94;;;9.13;95.63
39891;BME280;25564;53.312;9.790;2023-04-16T06:26:48;101355.94;;;9.18;95.42
39891;BME280;25564;53.312;9.790;2023-04-16T06:29:19;101356.81;;;9.23;95.46
39891;BME280;25564;53.312;9.790;2023-04-16T06:31:55;101360.31;;;9.33;95.06
39891;BME280;25564;53.312;9.790;2023-04-16T06:34:27;101367.34;;;9.40;95.25
39891;BME280;25564;53.312;9.790;2023-04-16T06:36:58;101364.66;;;9.46;95.45
39891;BME280;25564;53.312;9.790;2023-04-16T06:39:30;101375.25;;;9.54;95.13
39891;BME280;25564;53.312;9.790;2023-04-16T06:42:01;101363.75;;;9.58;95.16
39891;BME280;25564;53.312;9.790;2023-04-16T06:44:34;101361.97;;;9.67;94.54
39891;BME280;25564;53.312;9.790;2023-04-16T06:47:05;101351.34;;;9.69;95.28
39891;BME280;25564;53.312;9.790;2023-04-16T06:49:37;101377.78;;;9.87;94.99
39891;BME280;25564;53.312;9.790;2023-04-16T06:52:10;101376.88;;;9.93;94.24
39891;BME280;25564;53.312;9.790;2023-04-16T06:54:41;101378.63;;;9.94;94.08
39891;BME280;25564;53.312;9.790;2023-04-16T06:57:13;101375.97;;;10.00;94.00
39891;BME280;25564;53.312;9.790;2023-04-16T06:59:44;101374.19;;;9.99;93.77
39891;BME280;25564;53.312;9.790;2023-04-16T07:02:15;101361.88;;;9.90;93.83
39891;BME280;25564;53.312;9.790;2023-04-16T07:04:47;101382.13;;;10.03;93.75
39891;BME280;25564;53.312;9.790;2023-04-16T07:07:18;101368.03;;;9.95;93.81
39891;BME280;25564;53.312;9.790;2023-04-16T07:09:50;101382.13;;;10.05;93.99
39891;BME280;25564;53.312;9.790;2023-04-16T07:12:22;101385.63;;;10.10;93.89
39891;BME280;25564;53.312;9.790;2023-04-16T07:14:53;101393.59;;;10.13;93.12
39891;BME280;25564;53.312;9.790;2023-04-16T07:17:24;101398.00;;;10.14;93.16
39891;BME280;25564;53.312;9.790;2023-04-16T07:19:56;101400.66;;;10.14;92.91
39891;BME280;25564;53.312;9.790;2023-04-16T07:22:27;101397.13;;;10.10;93.36
39891;BME280;25564;53.312;9.790;2023-04-16T07:24:59;101391.81;;;10.12;93.51
39891;BME280;25564;53.312;9.790;2023-04-16T07:27:30;101397.09;;;10.16;93.08
39891;BME280;25564;53.312;9.790;2023-04-16T07:30:01;101400.66;;;10.20;93.02
39891;BME280;25564;53.312;9.790;2023-04-16T07:32:33;101404.19;;;10.22;92.69
39891;BME280;25564;53.312;9.790;2023-04-16T07:35:04;101405.03;;;10.29;92.94
39891;BME280;25564;53.312;9.790;2023-04-16T07:37:36;101405.00;;;10.36;92.94
39891;BME280;25564;53.312;9.790;2023-04-16T07:40:07;101384.72;;;10.22;92.55
39891;BME280;25564;53.312;9.790;2023-04-16T07:42:39;101397.94;;;10.32;92.38
39891;BME280;25564;53.312;9.790;2023-04-16T07:45:10;101413.81;;;10.38;92.11
39891;BME280;25564;53.312;9.790;2023-04-16T07:47:42;101412.00;;;10.40;92.64
39891;BME280;25564;53.312;9.790;2023-04-16T07:50:13;101406.69;;;10.43;92.62
39891;BME280;25564;53.312;9.790;2023-04-16T07:52:46;101413.66;;;10.61;92.25
39891;BME280;25564;53.312;9.790;2023-04-16T07:55:17;101420.69;;;10.67;91.87
39891;BME280;25564;53.312;9.790;2023-04-16T07:57:49;101416.25;;;10.70;91.71
39891;BME280;25564;53.312;9.790;2023-04-16T08:00:20;101433.00;;;10.80;91.77
39891;BME280;25564;53.312;9.790;2023-04-16T08:02:51;101422.38;;;10.80;91.56
39891;BME280;25564;53.312;9.790;2023-04-16T08:05:23;101429.38;;;10.90;91.32
39891;BME280;25564;53.312;9.790;2023-04-16T08:07:55;101395.75;;;10.88;91.31
39891;BME280;25564;53.312;9.790;2023-04-16T08:10:26;101435.38;;;11.15;90.92
39891;BME280;25564;53.312;9.790;2023-04-16T08:12:59;101425.59;;;11.22;90.63
39891;BME280;25564;53.312;9.790;2023-04-16T08:15:32;101444.97;;;11.31;90.69
39891;BME280;25564;53.312;9.790;2023-04-16T08:18:03;101427.22;;;11.38;90.22
39891;BME280;25564;53.312;9.790;2023-04-16T08:20:38;101408.59;;;11.38;90.27
39891;BME280;25564;53.312;9.790;2023-04-16T08:23:09;101443.88;;;11.51;90.18
39891;BME280;25564;53.312;9.790;2023-04-16T08:25:40;101431.53;;;11.45;89.83
39891;BME280;25564;53.312;9.790;2023-04-16T08:28:12;101431.50;;;11.48;89.50
39891;BME280;25564;53.312;9.790;2023-04-16T08:30:43;101444.66;;;11.63;89.51
39891;BME280;25564;53.312;9.790;2023-04-16T08:33:15;101422.53;;;11.58;89.60
39891;BME280;25564;53.312;9.790;2023-04-16T08:35:47;101448.91;;;11.81;89.11
39891;BME280;25564;53.312;9.790;2023-04-16T08:38:18;101451.44;;;11.93;88.88
39891;BME280;25564;53.312;9.790;2023-04-16T08:40:49;101449.63;;;11.98;88.46
39891;BME280;25564;53.312;9.790;2023-04-16T08:43:22;101453.19;;;11.96;88.31
39891;BME280;25564;53.312;9.790;2023-04-16T08:45:54;101448.69;;;12.02;88.57
39891;BME280;25564;53.312;9.790;2023-04-16T08:48:31;101443.31;;;12.05;87.92
39891;BME280;25564;53.312;9.790;2023-04-16T08:51:08;101439.03;;;11.94;88.15
39891;BME280;25564;53.312;9.790;2023-04-16T08:53:47;101449.66;;;11.95;87.69
39891;BME280;25564;53.312;9.790;2023-04-16T08:56:22;101450.56;;;11.94;88.78
39891;BME280;25564;53.312;9.790;2023-04-16T08:58:53;101455.84;;;11.96;88.61
39891;BME280;25564;53.312;9.790;2023-04-16T09:01:25;101463.81;;;11.99;88.48
39891;BME280;25564;53.312;9.790;2023-04-16T09:03:57;101464.56;;;12.08;88.16
39891;BME280;25564;53.312;9.790;2023-04-16T09:06:29;101428.38;;;11.94;88.18
39891;BME280;25564;53.312;9.790;2023-04-16T09:09:03;101440.69;;;12.04;87.47
39891;BME280;25564;53.312;9.790;2023-04-16T09:11:36;101476.09;;;12.09;87.61
39891;BME280;25564;53.312;9.790;2023-04-16T09:14:09;101475.22;;;12.07;87.30
39891;BME280;25564;53.312;9.790;2023-04-16T09:16:41;101454.09;;;11.95;87.47
39891;BME280;25564;53.312;9.790;2023-04-16T09:19:13;101468.19;;;12.01;87.58
39891;BME280;25564;53.312;9.790;2023-04-16T09:21:46;101471.66;;;12.09;87.42
39891;BME280;25564;53.312;9.790;2023-04-16T09:24:17;101482.34;;;12.05;87.02
39891;BME280;25564;53.312;9.790;2023-04-16T09:26:49;101459.44;;;11.93;86.98
39891;BME280;25564;53.312;9.790;2023-04-16T09:29:39;101472.50;;;12.13;86.70
39891;BME280;25564;53.312;9.790;2023-04-16T09:32:11;101472.41;;;12.21;86.96
39891;BME280;25564;53.312;9.790;2023-04-16T09:34:59;101472.25;;;12.34;86.77
39891;BME280;25564;53.312;9.790;2023-04-16T09:37:31;101467.78;;;12.35;86.49
39891;BME280;25564;53.312;9.790;2023-04-16T09:40:03;101488.06;;;12.47;86.44
39891;BME280;25564;53.312;9.790;2023-04-16T09:42:35;101480.94;;;12.47;86.33
39891;BME280;25564;53.312;9.790;2023-04-16T09:45:07;101491.50;;;12.53;86.18
39891;BME280;25564;53.312;9.790;2023-04-16T09:47:41;101464.09;;;12.47;85.95
39891;BME280;25564;53.312;9.790;2023-04-16T09:50:15;101468.41;;;12.54;86.00
39891;BME280;25564;53.312;9.790;2023-04-16T09:52:49;101493.00;;;12.72;85.77
39891;BME280;25564;53.312;9.790;2023-04-16T09:55:22;101492.94;;;12.77;85.63
39891;BME280;25564;53.312;9.790;2023-04-16T09:58:00;101475.25;;;12.73;85.49
39891;BME280;25564;53.312;9.790;2023-04-16T10:00:32;101501.78;;;12.79;85.52
39891;BME280;25564;53.312;9.790;2023-04-16T10:03:04;101489.28;;;12.84;85.46
39891;BME280;25564;53.312;9.790;2023-04-16T10:05:36;101489.28;;;12.84;85.13
39891;BME280;25564;53.312;9.790;2023-04-16T10:08:12;101496.13;;;13.02;84.89
39891;BME280;25564;53.312;9.790;2023-04-16T10:10:43;101498.69;;;13.09;84.80
39891;BME280;25564;53.312;9.790;2023-04-16T10:13:15;101505.81;;;13.07;84.72
39891;BME280;25564;53.312;9.790;2023-04-16T10:15:49;101505.03;;;12.99;84.46
39891;BME280;25564;53.312;9.790;2023-04-16T10:18:21;101494.47;;;12.95;84.41
39891;BME280;25564;53.312;9.790;2023-04-16T10:20:52;101500.72;;;12.91;84.52
39891;BME280;25564;53.312;9.790;2023-04-16T10:23:24;101506.00;;;12.94;84.33
39891;BME280;25564;53.312;9.790;2023-04-16T10:25:58;101500.75;;;12.89;84.37
39891;BME280;25564;53.312;9.790;2023-04-16T10:28:30;101514.13;;;12.86;84.28
39891;BME280;25564;53.312;9.790;2023-04-16T10:31:06;101504.47;;;12.77;83.98
39891;BME280;25564;53.312;9.790;2023-04-16T10:33:39;101513.44;;;12.72;84.16
39891;BME280;25564;53.312;9.790;2023-04-16T10:36:12;101516.16;;;12.66;84.18
39891;BME280;25564;53.312;9.790;2023-04-16T10:38:46;101494.34;;;12.39;84.13
39891;BME280;25564;53.312;9.790;2023-04-16T10:41:19;101520.75;;;12.55;84.42
39891;BME280;25564;53.312;9.790;2023-04-16T10:43:51;101519.78;;;12.60;84.23
39891;BME280;25564;53.312;9.790;2023-04-16T10:46:25;101518.00;;;12.61;84.32
39891;BME280;25564;53.312;9.790;2023-04-16T10:49:01;101525.09;;;12.62;84.25
39891;BME280;25564;53.312;9.790;2023-04-16T10:51:34;101527.69;;;12.66;84.19
39891;BME280;25564;53.312;9.790;2023-04-16T10:56:45;101500.91;;;12.78;84.19
39891;BME280;25564;53.312;9.790;2023-04-16T10:59:19;101495.50;;;12.85;83.74
39891;BME280;25564;53.312;9.790;2023-04-16T11:01:53;101522.75;;;13.03;83.67
39891;BME280;25564;53.312;9.790;2023-04-16T11:04:27;101525.53;;;12.94;83.45
39891;BME280;25564;53.312;9.790;2023-04-16T11:09:59;101512.66;;;12.64;83.26
39891;BME280;25564;53.312;9.790;2023-04-16T11:12:47;101519.69;;;12.69;83.49
39891;BME280;25564;53.312;9.790;2023-04-16T11:15:19;101517.75;;;12.81;83.65
39891;BME280;25564;53.312;9.790;2023-04-16T11:17:50;101521.13;;;12.93;83.34
39891;BME280;25564;53.312;9.790;2023-04-16T11:20:27;101507.03;;;12.85;82.93
39891;BME280;25564;53.312;9.790;2023-04-16T11:22:58;101528.13;;;13.00;83.32
39891;BME280;25564;53.312;9.790;2023-04-16T11:25:30;101526.44;;;12.93;83.01
39891;BME280;25564;53.312;9.790;2023-04-16T11:28:01;101523.91;;;12.84;82.88
39891;BME280;25564;53.312;9.790;2023-04-16T11:30:37;101524.81;;;12.83;83.18
39891;BME280;25564;53.312;9.790;2023-04-16T11:33:10;101528.38;;;12.82;83.11
39891;BME280;25564;53.312;9.790;2023-04-16T11:35:42;101523.13;;;12.76;83.20
39891;BME280;25564;53.312;9.790;2023-04-16T11:38:13;101530.97;;;12.87;83.37
39891;BME280;25564;53.312;9.790;2023-04-16T11:40:48;101515.84;;;12.90;83.18
39891;BME280;25564;53.312;9.790;2023-04-16T11:43:20;101510.34;;;13.02;83.34
39891;BME280;25564;53.312;9.790;2023-04-16T11:45:59;101531.44;;;13.18;82.79
39891;BME280;25564;53.312;9.790;2023-04-16T11:48:47;101539.41;;;13.21;82.15
39891;BME280;25564;53.312;9.790;2023-04-16T11:51:19;101542.13;;;13.18;82.58
39891;BME280;25564;53.312;9.790;2023-04-16T11:53:52;101524.59;;;12.98;82.34
39891;BME280;25564;53.312;9.790;2023-04-16T11:56:28;101545.78;;;13.07;82.54
39891;BME280;25564;53.312;9.790;2023-04-16T11:59:06;101552.00;;;13.06;82.29
39891;BME280;25564;53.312;9.790;2023-04-16T12:01:40;101544.94;;;13.05;82.66
39891;BME280;25564;53.312;9.790;2023-04-16T12:04:13;101545.78;;;13.07;82.46
39891;BME280;25564;53.312;9.790;2023-04-16T12:07:09;101541.34;;;13.06;81.97
39891;BME280;25564;53.312;9.790;2023-04-16T12:09:42;101553.81;;;13.04;82.35
39891;BME280;25564;53.312;9.790;2023-04-16T12:12:28;101552.97;;;13.01;82.11
39891;BME280;25564;53.312;9.790;2023-04-16T12:15:02;101553.88;;;13.00;82.57
39891;BME280;25564;53.312;9.790;2023-04-16T12:17:34;101558.34;;;12.99;82.49
39891;BME280;25564;53.312;9.790;2023-04-16T12:20:11;101558.38;;;12.96;82.50
39891;BME280;25564;53.312;9.790;2023-04-16T12:22:47;101547.81;;;12.90;82.39
39891;BME280;25564;53.312;9.790;2023-04-16T12:25:19;101562.91;;;12.90;82.17
39891;BME280;25564;53.312;9.790;2023-04-16T12:27:54;101538.25;;;12.75;82.38
39891;BME280;25564;53.312;9.790;2023-04-16T12:30:26;101563.06;;;12.79;82.17
39891;BME280;25564;53.312;9.790;2023-04-16T12:33:15;101562.16;;;12.80;81.92
39891;BME280;25564;53.312;9.790;2023-04-16T12:35:47;101571.84;;;12.84;82.30
39891;BME280;25564;53.312;9.790;2023-04-16T12:38:18;101544.41;;;12.79;82.27
39891;BME280;25564;53.312;9.790;2023-04-16T12:40:54;101546.13;;;12.83;82.13
39891;BME280;25564;53.312;9.790;2023-04-16T12:43:27;101574.31;;;13.01;82.06
39891;BME280;25564;53.312;9.790;2023-04-16T12:45:59;101562.78;;;12.99;81.97
39891;BME280;25564;53.312;9.790;2023-04-16T12:48:33;101574.28;;;13.02;81.76
39891;BME280;25564;53.312;9.790;2023-04-16T12:51:04;101567.25;;;12.97;81.71
39891;BME280;25564;53.312;9.790;2023-04-16T12:53:36;101566.41;;;12.93;81.68
39891;BME280;25564;53.312;9.790;2023-04-16T12:56:07;101568.16;;;12.96;81.84
39891;BME280;25564;53.312;9.790;2023-04-16T12:58:38;101565.47;;;12.97;82.26
39891;BME280;25564;53.312;9.790;2023-04-16T13:01:10;101572.44;;;13.07;81.52
39891;BME280;25564;53.312;9.790;2023-04-16T13:03:42;101567.06;;;13.10;81.59
39891;BME280;25564;53.312;9.790;2023-04-16T13:06:14;101575.03;;;13.12;81.47
39891;BME280;25564;53.312;9.790;2023-04-16T13:08:46;101574.16;;;13.12;81.27
39891;BME280;25564;53.312;9.790;2023-04-16T13:11:17;101569.69;;;13.12;81.42
39891;BME280;25564;53.312;9.790;2023-04-16T13:13:49;101584.78;;;13.15;80.98
39891;BME280;25564;53.312;9.790;2023-04-16T13:16:20;101578.56;;;13.14;81.07
39891;BME280;25564;53.312;9.790;2023-04-16T13:18:52;101581.19;;;13.16;81.19
39891;BME280;25564;53.312;9.790;2023-04-16T13:21:23;101572.34;;;13.14;80.84
39891;BME280;25564;53.312;9.790;2023-04-16T13:23:54;101575.91;;;13.13;81.02
39891;BME280;25564;53.312;9.790;2023-04-16T13:26:26;101577.69;;;13.14;81.19
39891;BME280;25564;53.312;9.790;2023-04-16T13:28:57;101574.13;;;13.16;80.90